createdAt,value
2023-01-11T00:00:27.242Z,995.07
2023-01-11T00:01:27.238Z,995.01
2023-01-11T00:02:27.324Z,994.96
2023-01-11T00:03:27.171Z,994.95
2023-01-11T00:04:27.195Z,995.03
2023-01-11T00:05:27.115Z,994.92
2023-01-11T00:06:27.196Z,994.85
2023-01-11T00:07:27.062Z,994.91
2023-01-11T00:08:27.069Z,994.88
2023-01-11T00:09:27.054Z,994.90
2023-01-11T00:10:27.010Z,994.87
2023-01-11T00:11:26.960Z,994.85
2023-01-11T00:12:26.944Z,994.82
2023-01-11T00:13:26.911Z,994.77
2023-01-11T00:14:26.886Z,994.80
2023-01-11T00:15:26.884Z,994.80
2023-01-11T00:16:26.914Z,994.80
2023-01-11T00:17:26.805Z,994.80
2023-01-11T00:18:26.788Z,994.80
2023-01-11T00:19:26.756Z,994.76
2023-01-11T00:20:26.739Z,994.68
2023-01-11T00:21:26.780Z,994.70
2023-01-11T00:22:26.683Z,994.72
2023-01-11T00:23:26.662Z,994.69
2023-01-11T00:24:26.651Z,994.73
2023-01-11T00:25:26.607Z,994.67
2023-01-11T00:26:26.638Z,994.77
2023-01-11T00:27:26.558Z,994.67
2023-01-11T00:28:26.534Z,994.58
2023-01-11T00:29:26.504Z,994.61
2023-01-11T00:30:26.482Z,994.53
2023-01-11T00:31:26.557Z,994.50
2023-01-11T00:32:26.431Z,994.50
2023-01-11T00:33:26.415Z,994.43
2023-01-11T00:34:26.383Z,994.40
2023-01-11T00:35:26.356Z,994.50
2023-01-11T00:36:26.382Z,994.43
2023-01-11T00:37:26.300Z,994.39
2023-01-11T00:38:26.286Z,994.42
2023-01-11T00:39:26.252Z,994.42
2023-01-11T00:40:26.235Z,994.37
2023-01-11T00:41:26.199Z,994.45
2023-01-11T00:42:26.179Z,994.44
2023-01-11T00:43:26.150Z,994.47
2023-01-11T00:44:26.128Z,994.47
2023-01-11T00:45:26.106Z,994.46
2023-01-11T00:46:26.144Z,994.44
2023-01-11T00:47:26.051Z,994.40
2023-01-11T00:48:26.032Z,994.34
2023-01-11T00:49:26.002Z,994.32
2023-01-11T00:50:25.984Z,994.24
2023-01-11T00:51:25.957Z,994.24
2023-01-11T00:52:25.933Z,994.27
2023-01-11T00:53:25.905Z,994.25
2023-01-11T00:54:25.882Z,994.22
2023-01-11T00:55:25.854Z,994.23
2023-01-11T00:56:25.861Z,994.27
2023-01-11T00:57:25.796Z,994.19
2023-01-11T00:58:25.780Z,994.19
2023-01-11T00:59:25.750Z,994.14
2023-01-11T01:00:25.733Z,994.21
2023-01-11T01:01:25.757Z,994.11
2023-01-11T01:02:25.811Z,994.13
2023-01-11T01:03:25.670Z,994.11
2023-01-11T01:04:25.631Z,994.04
2023-01-11T01:05:25.594Z,994.07
2023-01-11T01:06:25.658Z,994.09
2023-01-11T01:07:25.542Z,994.04
2023-01-11T01:08:25.531Z,994.06
2023-01-11T01:09:25.503Z,994.08
2023-01-11T01:10:25.476Z,994.07
2023-01-11T01:11:25.465Z,994.02
2023-01-11T01:12:25.430Z,994.00
2023-01-11T01:13:25.423Z,994.01
2023-01-11T01:14:25.380Z,994.06
2023-01-11T01:15:25.350Z,994.02
2023-01-11T01:16:25.332Z,994.00
2023-01-11T01:17:25.304Z,993.97
2023-01-11T01:18:25.277Z,994.00
2023-01-11T01:19:25.247Z,993.97
2023-01-11T01:20:25.224Z,993.92
2023-01-11T01:21:25.209Z,993.86
2023-01-11T01:22:25.175Z,993.88
2023-01-11T01:23:25.167Z,993.87
2023-01-11T01:24:25.125Z,993.92
2023-01-11T01:25:25.115Z,993.86
2023-01-11T01:26:25.076Z,993.91
2023-01-11T01:27:25.048Z,993.86
2023-01-11T01:28:25.027Z,993.89
2023-01-11T01:29:24.996Z,993.91
2023-01-11T01:30:24.987Z,993.86
2023-01-11T01:31:25.039Z,993.95
2023-01-11T01:32:24.926Z,993.90
2023-01-11T01:33:24.895Z,993.85
2023-01-11T01:34:24.873Z,993.89
2023-01-11T01:35:24.846Z,993.83
2023-01-11T01:36:24.824Z,993.87
2023-01-11T01:37:24.799Z,993.80
2023-01-11T01:38:24.773Z,993.82
2023-01-11T01:39:24.751Z,993.90
2023-01-11T01:40:24.754Z,993.95
2023-01-11T01:41:24.690Z,993.91
2023-01-11T01:42:24.682Z,993.91
2023-01-11T01:43:24.646Z,993.89
2023-01-11T01:44:24.623Z,993.87
2023-01-11T01:45:24.606Z,993.86
2023-01-11T01:46:24.648Z,993.82
2023-01-11T01:47:24.548Z,993.80
2023-01-11T01:48:24.543Z,993.85
2023-01-11T01:49:24.509Z,993.90
2023-01-11T01:50:24.493Z,993.94
2023-01-11T01:51:24.441Z,993.90
2023-01-11T01:52:24.424Z,993.93
2023-01-11T01:53:24.407Z,993.96
2023-01-11T01:54:24.376Z,993.95
2023-01-11T01:55:24.339Z,993.91
2023-01-11T01:56:24.328Z,993.89
2023-01-11T01:57:24.333Z,993.91
2023-01-11T01:58:24.278Z,993.85
2023-01-11T01:59:24.251Z,993.86
2023-01-11T02:00:24.223Z,993.81
2023-01-11T02:01:24.238Z,993.90
2023-01-11T02:02:24.295Z,993.94
2023-01-11T02:03:24.142Z,993.88
2023-01-11T02:04:24.124Z,993.86
2023-01-11T02:05:24.123Z,993.84
2023-01-11T02:06:24.101Z,993.83
2023-01-11T02:07:24.041Z,993.77
2023-01-11T02:08:24.033Z,993.80
2023-01-11T02:09:24.020Z,993.76
2023-01-11T02:10:23.971Z,993.71
2023-01-11T02:11:23.943Z,993.86
2023-01-11T02:12:23.924Z,993.76
2023-01-11T02:13:23.908Z,993.79
2023-01-11T02:14:23.869Z,993.78
2023-01-11T02:15:23.849Z,993.79
2023-01-11T02:16:23.903Z,993.80
2023-01-11T02:17:23.809Z,993.79
2023-01-11T02:18:23.784Z,993.81
2023-01-11T02:19:23.744Z,993.76
2023-01-11T02:20:23.730Z,993.77
2023-01-11T02:21:23.691Z,993.77
2023-01-11T02:22:23.675Z,993.76
2023-01-11T02:23:23.646Z,993.82
2023-01-11T02:24:23.625Z,993.75
2023-01-11T02:25:23.594Z,993.71
2023-01-11T02:26:23.589Z,993.72
2023-01-11T02:27:23.608Z,993.70
2023-01-11T02:28:23.530Z,993.73
2023-01-11T02:29:23.498Z,993.73
2023-01-11T02:30:23.481Z,993.71
2023-01-11T02:31:23.459Z,993.71
2023-01-11T02:32:23.430Z,993.72
2023-01-11T02:33:23.401Z,993.66
2023-01-11T02:34:23.414Z,993.71
2023-01-11T02:35:23.342Z,993.66
2023-01-11T02:36:23.325Z,993.70
2023-01-11T02:37:23.295Z,993.62
2023-01-11T02:38:23.278Z,993.60
2023-01-11T02:39:23.245Z,993.53
2023-01-11T02:40:23.243Z,993.57
2023-01-11T02:41:23.197Z,993.50
2023-01-11T02:42:23.184Z,993.56
2023-01-11T02:43:23.164Z,993.50
2023-01-11T02:44:23.149Z,993.43
2023-01-11T02:45:23.092Z,993.49
2023-01-11T02:46:23.146Z,993.43
2023-01-11T02:47:23.051Z,993.40
2023-01-11T02:48:23.033Z,993.37
2023-01-11T02:49:22.998Z,993.37
2023-01-11T02:50:22.980Z,993.44
2023-01-11T02:51:22.963Z,993.44
2023-01-11T02:52:22.929Z,993.40
2023-01-11T02:53:22.893Z,993.45
2023-01-11T02:54:22.877Z,993.41
2023-01-11T02:55:22.850Z,993.38
2023-01-11T02:56:22.827Z,993.37
2023-01-11T02:57:22.799Z,993.34
2023-01-11T02:58:22.805Z,993.30
2023-01-11T02:59:22.781Z,993.35
2023-01-11T03:00:22.742Z,993.30
2023-01-11T03:01:22.966Z,993.38
2023-01-11T03:02:22.679Z,993.40
2023-01-11T03:03:22.647Z,993.36
2023-01-11T03:04:22.630Z,993.28
2023-01-11T03:05:22.601Z,993.26
2023-01-11T03:06:22.660Z,993.29
2023-01-11T03:07:22.553Z,993.24
2023-01-11T03:08:22.540Z,993.21
2023-01-11T03:09:22.505Z,993.27
2023-01-11T03:10:22.527Z,993.21
2023-01-11T03:11:22.456Z,993.29
2023-01-11T03:12:22.430Z,993.26
2023-01-11T03:13:22.403Z,993.26
2023-01-11T03:14:22.384Z,993.32
2023-01-11T03:15:22.360Z,993.36
2023-01-11T03:16:22.368Z,993.41
2023-01-11T03:17:22.308Z,993.39
2023-01-11T03:18:22.303Z,993.37
2023-01-11T03:19:22.257Z,993.33
2023-01-11T03:20:22.243Z,993.31
2023-01-11T03:21:22.230Z,993.25
2023-01-11T03:22:22.195Z,993.23
2023-01-11T03:23:22.157Z,993.18
2023-01-11T03:24:22.155Z,993.17
2023-01-11T03:25:22.108Z,993.12
2023-01-11T03:26:22.086Z,993.14
2023-01-11T03:27:22.054Z,993.14
2023-01-11T03:28:22.060Z,993.11
2023-01-11T03:29:22.034Z,993.08
2023-01-11T03:30:21.993Z,993.06
2023-01-11T03:31:21.996Z,993.07
2023-01-11T03:32:21.956Z,993.08
2023-01-11T03:33:21.917Z,993.03
2023-01-11T03:34:21.899Z,992.99
2023-01-11T03:35:21.861Z,992.97
2023-01-11T03:36:21.839Z,992.97
2023-01-11T03:37:21.831Z,992.97
2023-01-11T03:38:21.799Z,992.96
2023-01-11T03:39:21.767Z,992.93
2023-01-11T03:40:21.757Z,992.97
2023-01-11T03:41:21.714Z,993.00
2023-01-11T03:42:21.713Z,992.99
2023-01-11T03:43:21.665Z,992.95
2023-01-11T03:44:21.647Z,993.04
2023-01-11T03:45:21.621Z,993.08
2023-01-11T03:46:21.598Z,993.07
2023-01-11T03:47:21.567Z,993.04
2023-01-11T03:48:21.541Z,992.98
2023-01-11T03:49:21.524Z,993.07
2023-01-11T03:50:21.501Z,993.06
2023-01-11T03:51:21.468Z,992.99
2023-01-11T03:52:21.451Z,993.02
2023-01-11T03:53:21.414Z,992.94
2023-01-11T03:54:21.400Z,992.98
2023-01-11T03:55:21.368Z,992.87
2023-01-11T03:56:21.352Z,992.94
2023-01-11T03:57:21.330Z,992.96
2023-01-11T03:58:21.298Z,992.87
2023-01-11T03:59:21.274Z,992.87
2023-01-11T04:00:21.251Z,992.85
2023-01-11T04:01:21.259Z,992.87
2023-01-11T04:02:21.211Z,992.77
2023-01-11T04:03:21.177Z,992.74
2023-01-11T04:04:21.190Z,992.75
2023-01-11T04:05:21.125Z,992.66
2023-01-11T04:06:21.261Z,992.73
2023-01-11T04:07:21.084Z,992.74
2023-01-11T04:08:21.064Z,992.57
2023-01-11T04:09:21.019Z,992.56
2023-01-11T04:10:21.000Z,992.55
2023-01-11T04:11:20.978Z,992.56
2023-01-11T04:12:20.978Z,992.59
2023-01-11T04:13:20.945Z,992.56
2023-01-11T04:14:20.923Z,992.56
2023-01-11T04:15:20.889Z,992.58
2023-01-11T04:16:20.934Z,992.61
2023-01-11T04:17:20.838Z,992.55
2023-01-11T04:18:20.807Z,992.58
2023-01-11T04:19:20.780Z,992.61
2023-01-11T04:20:20.754Z,992.60
2023-01-11T04:21:20.738Z,992.58
2023-01-11T04:22:20.705Z,992.63
2023-01-11T04:23:20.687Z,992.54
2023-01-11T04:24:20.657Z,992.50
2023-01-11T04:25:20.634Z,992.56
2023-01-11T04:26:20.607Z,992.51
2023-01-11T04:27:20.613Z,992.50
2023-01-11T04:28:20.559Z,992.51
2023-01-11T04:29:20.540Z,992.44
2023-01-11T04:30:20.526Z,992.40
2023-01-11T04:31:20.514Z,992.49
2023-01-11T04:32:20.465Z,992.47
2023-01-11T04:33:20.444Z,992.45
2023-01-11T04:34:20.413Z,992.51
2023-01-11T04:35:20.390Z,992.47
2023-01-11T04:36:20.374Z,992.47
2023-01-11T04:37:20.351Z,992.40
2023-01-11T04:38:20.331Z,992.46
2023-01-11T04:39:20.295Z,992.45
2023-01-11T04:40:20.266Z,992.42
2023-01-11T04:41:22.709Z,992.45
2023-01-11T04:42:20.220Z,992.35
2023-01-11T04:43:20.198Z,992.36
2023-01-11T04:44:20.171Z,992.40
2023-01-11T04:45:20.165Z,992.32
2023-01-11T04:46:20.116Z,992.32
2023-01-11T04:47:20.113Z,992.37
2023-01-11T04:48:20.090Z,992.32
2023-01-11T04:49:20.044Z,992.32
2023-01-11T04:50:20.067Z,992.31
2023-01-11T04:51:20.006Z,992.31
2023-01-11T04:52:19.971Z,992.30
2023-01-11T04:53:20.105Z,992.30
2023-01-11T04:54:19.941Z,992.26
2023-01-11T04:55:19.920Z,992.36
2023-01-11T04:56:19.871Z,992.32
2023-01-11T04:57:19.852Z,992.31
2023-01-11T04:58:19.831Z,992.35
2023-01-11T04:59:19.806Z,992.33
2023-01-11T05:00:19.785Z,992.31
2023-01-11T05:01:19.820Z,992.37
2023-01-11T05:02:19.729Z,992.27
2023-01-11T05:03:19.708Z,992.33
2023-01-11T05:04:19.729Z,992.27
2023-01-11T05:05:19.663Z,992.26
2023-01-11T05:06:19.642Z,992.31
2023-01-11T05:07:19.617Z,992.25
2023-01-11T05:08:19.603Z,992.29
2023-01-11T05:12:19.562Z,992.27
2023-01-11T05:13:19.465Z,992.27
2023-01-11T05:14:19.435Z,992.28
2023-01-11T05:15:19.419Z,992.32
2023-01-11T05:16:19.434Z,992.29
2023-01-11T05:17:19.373Z,992.32
2023-01-11T05:18:19.336Z,992.33
2023-01-11T05:19:19.314Z,992.26
2023-01-11T05:20:19.301Z,992.22
2023-01-11T05:21:19.266Z,992.26
2023-01-11T05:22:19.367Z,992.18
2023-01-11T05:23:19.270Z,992.20
2023-01-11T05:24:19.186Z,992.24
2023-01-11T05:25:19.172Z,992.23
2023-01-11T05:26:19.169Z,992.32
2023-01-11T05:27:19.134Z,992.23
2023-01-11T05:28:19.086Z,992.19
2023-01-11T05:29:19.099Z,992.22
2023-01-11T05:30:19.053Z,992.08
2023-01-11T05:31:19.062Z,992.05
2023-01-11T05:32:19.006Z,992.10
2023-01-11T05:33:18.968Z,992.15
2023-01-11T05:34:18.943Z,992.13
2023-01-11T05:35:18.936Z,992.12
2023-01-11T05:36:18.914Z,992.09
2023-01-11T05:37:18.938Z,992.09
2023-01-11T05:38:18.886Z,992.12
2023-01-11T05:39:19.212Z,992.14
2023-01-11T05:40:18.826Z,992.10
2023-01-11T05:41:18.852Z,992.21
2023-01-11T05:42:18.753Z,992.21
2023-01-11T05:43:18.729Z,992.17
2023-01-11T05:44:18.771Z,992.19
2023-01-11T05:45:19.005Z,992.21
2023-01-11T05:46:18.668Z,992.16
2023-01-11T05:47:18.627Z,992.16
2023-01-11T05:48:18.710Z,992.10
2023-01-11T05:49:18.575Z,992.12
2023-01-11T05:50:18.546Z,992.13
2023-01-11T05:51:18.533Z,992.11
2023-01-11T05:52:18.501Z,992.10
2023-01-11T05:53:18.482Z,992.07
2023-01-11T05:54:18.451Z,992.07
2023-01-11T05:55:18.455Z,992.13
2023-01-11T05:56:18.402Z,992.06
2023-01-11T05:57:18.398Z,992.13
2023-01-11T05:58:18.355Z,992.13
2023-01-11T05:59:18.330Z,992.10
2023-01-11T06:00:18.303Z,992.07
2023-01-11T06:01:18.374Z,992.08
2023-01-11T06:02:18.405Z,992.17
2023-01-11T06:03:18.338Z,992.09
2023-01-11T06:04:18.207Z,992.04
2023-01-11T06:05:18.188Z,992.08
2023-01-11T06:06:18.163Z,992.05
2023-01-11T06:07:18.140Z,992.03
2023-01-11T06:08:18.110Z,991.97
2023-01-11T06:09:18.101Z,992.02
2023-01-11T06:10:18.058Z,991.95
2023-01-11T06:11:18.042Z,991.89
2023-01-11T06:12:18.052Z,991.93
2023-01-11T06:13:18.008Z,991.87
2023-01-11T06:14:17.979Z,991.87
2023-01-11T06:15:17.955Z,991.91
2023-01-11T06:16:17.965Z,991.89
2023-01-11T06:17:17.895Z,991.88
2023-01-11T06:18:17.964Z,991.89
2023-01-11T06:19:17.856Z,991.83
2023-01-11T06:20:17.823Z,991.82
2023-01-11T06:21:17.804Z,991.83
2023-01-11T06:22:17.763Z,991.74
2023-01-11T06:23:17.758Z,991.78
2023-01-11T06:24:17.721Z,991.76
2023-01-11T06:25:17.706Z,991.77
2023-01-11T06:26:17.668Z,991.70
2023-01-11T06:27:17.660Z,991.70
2023-01-11T06:28:17.632Z,991.68
2023-01-11T06:29:17.599Z,991.77
2023-01-11T06:30:17.579Z,991.71
2023-01-11T06:31:18.216Z,991.73
2023-01-11T06:32:17.547Z,991.62
2023-01-11T06:33:17.507Z,991.65
2023-01-11T06:34:17.473Z,991.61
2023-01-11T06:35:17.455Z,991.69
2023-01-11T06:36:17.433Z,991.63
2023-01-11T06:37:17.407Z,991.59
2023-01-11T06:38:17.397Z,991.57
2023-01-11T06:39:17.369Z,991.57
2023-01-11T06:40:17.327Z,991.58
2023-01-11T06:41:17.330Z,991.60
2023-01-11T06:42:17.282Z,991.60
2023-01-11T06:43:17.256Z,991.53
2023-01-11T06:44:17.284Z,991.53
2023-01-11T06:45:17.217Z,991.53
2023-01-11T06:46:17.280Z,991.49
2023-01-11T06:47:17.169Z,991.47
2023-01-11T06:48:17.139Z,991.43
2023-01-11T06:49:17.117Z,991.39
2023-01-11T06:50:17.117Z,991.37
2023-01-11T06:51:17.070Z,991.51
2023-01-11T06:52:17.037Z,991.39
2023-01-11T06:53:17.025Z,991.31
2023-01-11T06:54:16.996Z,991.27
2023-01-11T06:55:16.969Z,991.38
2023-01-11T06:56:16.934Z,991.29
2023-01-11T06:57:16.918Z,991.26
2023-01-11T06:58:16.902Z,991.22
2023-01-11T06:59:16.865Z,991.27
2023-01-11T07:00:16.833Z,991.28
2023-01-11T07:01:16.907Z,991.29
2023-01-11T07:02:16.787Z,991.23
2023-01-11T07:03:16.782Z,991.26
2023-01-11T07:04:16.748Z,991.29
2023-01-11T07:05:18.958Z,991.30
2023-01-11T07:06:16.692Z,991.23
2023-01-11T07:07:16.701Z,991.28
2023-01-11T07:08:16.644Z,991.25
2023-01-11T07:09:16.621Z,991.29
2023-01-11T07:10:16.606Z,991.31
2023-01-11T07:11:16.610Z,991.29
2023-01-11T07:12:16.540Z,991.27
2023-01-11T07:13:16.557Z,991.29
2023-01-11T07:14:16.503Z,991.28
2023-01-11T07:15:16.481Z,991.32
2023-01-11T07:16:16.531Z,991.29
2023-01-11T07:17:16.438Z,991.33
2023-01-11T07:18:16.399Z,991.31
2023-01-11T07:19:16.381Z,991.26
2023-01-11T07:20:16.357Z,991.22
2023-01-11T07:21:16.348Z,991.27
2023-01-11T07:22:16.325Z,991.29
2023-01-11T07:23:16.285Z,991.28
2023-01-11T07:24:16.260Z,991.29
2023-01-11T07:25:16.235Z,991.30
2023-01-11T07:26:16.250Z,991.33
2023-01-11T07:27:16.191Z,991.33
2023-01-11T07:28:16.161Z,991.34
2023-01-11T07:29:16.135Z,991.29
2023-01-11T07:30:16.109Z,991.19
2023-01-11T07:31:16.118Z,991.33
2023-01-11T07:32:16.059Z,991.27
2023-01-11T07:33:16.037Z,991.48
2023-01-11T07:34:16.012Z,991.40
2023-01-11T07:35:15.991Z,991.35
2023-01-11T07:36:15.957Z,991.30
2023-01-11T07:37:28.653Z,991.37
2023-01-11T07:38:15.942Z,991.33
2023-01-11T07:39:15.899Z,991.37
2023-01-11T07:40:15.879Z,991.38
2023-01-11T07:41:15.851Z,991.34
2023-01-11T07:42:15.812Z,991.30
2023-01-11T07:43:15.824Z,991.21
2023-01-11T07:44:15.774Z,991.22
2023-01-11T07:45:15.826Z,991.18
2023-01-11T07:46:15.928Z,991.21
2023-01-11T07:47:15.707Z,991.23
2023-01-11T07:48:15.673Z,991.27
2023-01-11T07:49:15.657Z,991.34
2023-01-11T07:50:15.625Z,991.34
2023-01-11T07:51:15.600Z,991.32
2023-01-11T07:52:15.577Z,991.30
2023-01-11T07:53:15.588Z,991.32
2023-01-11T07:54:15.548Z,991.30
2023-01-11T07:55:15.513Z,991.34
2023-01-11T07:56:15.494Z,991.30
2023-01-11T07:57:15.458Z,991.34
2023-01-11T07:58:15.453Z,991.30
2023-01-11T07:59:15.408Z,991.37
2023-01-11T08:00:15.379Z,991.38
2023-01-11T08:01:15.361Z,991.37
2023-01-11T08:02:15.328Z,991.37
2023-01-11T08:03:15.398Z,991.32
2023-01-11T08:04:15.288Z,991.34
2023-01-11T08:05:15.261Z,991.38
2023-01-11T08:06:15.265Z,991.33
2023-01-11T08:07:15.216Z,991.37
2023-01-11T08:08:15.188Z,991.33
2023-01-11T08:09:15.167Z,991.42
2023-01-11T08:10:15.142Z,991.49
2023-01-11T08:11:15.128Z,991.34
2023-01-11T08:12:15.088Z,991.35
2023-01-11T08:13:15.089Z,991.37
2023-01-11T08:14:15.060Z,991.34
2023-01-11T08:15:15.019Z,991.33
2023-01-11T08:16:15.044Z,991.31
2023-01-11T08:17:14.988Z,991.37
2023-01-11T08:18:14.951Z,991.42
2023-01-11T08:19:14.918Z,991.47
2023-01-11T08:20:14.893Z,991.39
2023-01-11T08:22:14.846Z,991.40
2023-01-11T08:23:14.852Z,991.41
2023-01-11T08:24:14.799Z,991.35
2023-01-11T08:25:14.844Z,991.44
2023-01-11T08:26:14.798Z,991.39
2023-01-11T08:27:14.780Z,991.35
2023-01-11T08:29:14.679Z,991.40
2023-01-11T08:30:14.682Z,991.42
2023-01-11T08:32:14.689Z,991.41
2023-01-11T08:33:14.644Z,991.38
2023-01-11T08:34:14.647Z,991.44
2023-01-11T08:35:14.555Z,991.35
2023-01-11T08:36:14.552Z,991.34
2023-01-11T08:38:15.192Z,991.32
2023-01-11T08:39:14.439Z,991.33
2023-01-11T08:40:14.412Z,991.31
2023-01-11T08:41:14.450Z,991.27
2023-01-11T08:42:14.393Z,991.24
2023-01-11T08:43:14.346Z,991.25
2023-01-11T08:44:15.010Z,991.25
2023-01-11T08:45:14.280Z,991.24
2023-01-11T08:46:14.304Z,991.26
2023-01-11T08:47:14.235Z,991.27
2023-01-11T08:48:14.222Z,991.24
2023-01-11T08:49:14.188Z,991.26
2023-01-11T08:51:14.314Z,991.22
2023-01-11T08:52:14.200Z,991.26
2023-01-11T08:54:14.459Z,991.26
2023-01-11T08:55:14.067Z,991.16
2023-01-11T08:56:14.154Z,991.27
2023-01-11T08:57:15.011Z,991.32
2023-01-11T08:58:14.102Z,991.27
2023-01-11T08:59:14.179Z,991.21
2023-01-11T09:00:14.006Z,991.23
2023-01-11T09:01:13.975Z,991.27
2023-01-11T09:02:13.881Z,991.26
2023-01-11T09:03:13.904Z,991.33
2023-01-11T09:04:24.141Z,991.35
2023-01-11T09:05:13.803Z,991.34
2023-01-11T09:06:13.774Z,991.26
2023-01-11T09:07:13.767Z,991.35
2023-01-11T09:08:13.725Z,991.32
2023-01-11T09:09:13.709Z,991.31
2023-01-11T09:10:13.687Z,991.33
2023-01-11T09:11:13.674Z,991.32
2023-01-11T09:12:13.644Z,991.26
2023-01-11T09:13:13.650Z,991.31
2023-01-11T09:14:13.612Z,991.28
2023-01-11T09:15:13.558Z,991.27
2023-01-11T09:16:13.558Z,991.36
2023-01-11T09:17:13.519Z,991.44
2023-01-11T09:18:13.483Z,991.33
2023-01-11T09:19:13.463Z,991.38
2023-01-11T09:20:13.436Z,991.35
2023-01-11T09:21:13.420Z,991.29
2023-01-11T09:22:13.388Z,991.33
2023-01-11T09:23:13.363Z,991.36
2023-01-11T09:24:13.780Z,991.32
2023-01-11T09:25:13.433Z,991.33
2023-01-11T09:26:13.303Z,991.35
2023-01-11T09:27:13.312Z,991.35
2023-01-11T09:28:13.250Z,991.33
2023-01-11T09:29:13.253Z,991.32
2023-01-11T09:30:13.205Z,991.39
2023-01-11T09:31:13.278Z,991.33
2023-01-11T09:32:13.151Z,991.34
2023-01-11T09:33:13.115Z,991.33
2023-01-11T09:34:13.109Z,991.30
2023-01-11T09:35:13.065Z,991.46
2023-01-11T09:36:13.049Z,991.40
2023-01-11T09:37:13.035Z,991.38
2023-01-11T09:38:13.002Z,991.42
2023-01-11T09:39:13.034Z,991.39
2023-01-11T09:40:13.919Z,991.41
2023-01-11T09:41:12.941Z,991.41
2023-01-11T09:42:12.911Z,991.37
2023-01-11T09:43:12.972Z,991.44
2023-01-11T09:44:12.871Z,991.36
2023-01-11T09:45:12.826Z,991.38
2023-01-11T09:46:12.910Z,991.39
2023-01-11T09:47:12.797Z,991.41
2023-01-11T09:48:12.766Z,991.33
2023-01-11T09:49:12.725Z,991.38
2023-01-11T09:50:12.788Z,991.41
2023-01-11T09:51:12.682Z,991.42
2023-01-11T09:52:12.661Z,991.31
2023-01-11T09:53:12.633Z,991.33
2023-01-11T09:54:12.615Z,991.40
2023-01-11T09:55:12.612Z,991.40
2023-01-11T09:56:12.576Z,991.38
2023-01-11T09:57:12.535Z,991.43
2023-01-11T09:58:12.520Z,991.43
2023-01-11T09:59:12.482Z,991.41
2023-01-11T10:01:12.599Z,991.50
2023-01-11T10:02:12.802Z,991.44
2023-01-11T10:03:12.448Z,991.41
2023-01-11T10:04:12.480Z,991.42
2023-01-11T10:05:12.350Z,991.36
2023-01-11T10:06:12.336Z,991.42
2023-01-11T10:07:12.301Z,991.37
2023-01-11T10:18:23.432Z,991.38
2023-01-11T10:18:26.031Z,991.39
2023-01-11T10:18:29.667Z,991.41
2023-01-11T10:18:31.014Z,991.41
2023-01-11T10:18:33.346Z,991.41
2023-01-11T10:19:33.328Z,991.35
2023-01-11T10:20:12.057Z,991.30
2023-01-11T10:21:11.973Z,991.40
2023-01-11T10:22:11.942Z,991.34
2023-01-11T10:23:11.921Z,991.34
2023-01-11T10:24:11.890Z,991.41
2023-01-11T10:25:12.046Z,991.39
2023-01-11T10:26:11.835Z,991.38
2023-01-11T10:27:11.830Z,991.46
2023-01-11T10:28:11.788Z,991.47
2023-01-11T10:29:11.774Z,991.44
2023-01-11T10:30:11.744Z,991.36
2023-01-11T10:31:11.819Z,991.42
2023-01-11T10:32:11.700Z,991.41
2023-01-11T10:33:11.663Z,991.43
2023-01-11T10:34:11.669Z,991.42
2023-01-11T10:35:11.675Z,991.42
2023-01-11T10:36:11.600Z,991.36
2023-01-11T10:37:11.570Z,991.42
2023-01-11T10:38:11.544Z,991.39
2023-01-11T10:39:11.532Z,991.39
2023-01-11T10:40:11.501Z,991.44
2023-01-11T10:41:11.482Z,991.51
2023-01-11T10:42:11.484Z,991.47
2023-01-11T10:43:11.429Z,991.47
2023-01-11T10:44:11.427Z,991.34
2023-01-11T10:45:11.373Z,991.44
2023-01-11T10:46:11.390Z,991.47
2023-01-11T10:47:11.330Z,991.48
2023-01-11T10:48:11.312Z,991.44
2023-01-11T10:49:11.278Z,991.47
2023-01-11T10:50:11.294Z,991.50
2023-01-11T10:51:11.232Z,991.59
2023-01-11T10:53:11.202Z,991.53
2023-01-11T10:54:11.168Z,991.59
2023-01-11T10:55:11.487Z,991.56
2023-01-11T10:56:11.279Z,991.54
2023-01-11T10:57:11.275Z,991.54
2023-01-11T10:58:11.132Z,991.56
2023-01-11T10:59:11.168Z,991.55
2023-01-11T11:00:11.586Z,991.55
2023-01-11T11:01:11.057Z,991.57
2023-01-11T11:02:11.034Z,991.58
2023-01-11T11:03:10.951Z,991.59
2023-01-11T11:04:10.925Z,991.55
2023-01-11T11:05:11.022Z,991.60
2023-01-11T11:06:10.989Z,991.67
2023-01-11T11:07:10.953Z,991.62
2023-01-11T11:08:12.056Z,991.70
2023-01-11T11:09:10.807Z,991.67
2023-01-11T11:10:10.813Z,991.60
2023-01-11T11:11:10.754Z,991.71
2023-01-11T11:12:10.740Z,991.67
2023-01-11T11:13:10.724Z,991.65
2023-01-11T11:14:10.685Z,991.69
2023-01-11T11:15:10.666Z,991.73
2023-01-11T11:16:10.704Z,991.62
2023-01-11T11:17:10.613Z,991.73
2023-01-11T11:18:10.591Z,991.71
2023-01-11T11:19:10.587Z,991.67
2023-01-11T11:20:10.539Z,991.62
2023-01-11T11:21:10.511Z,991.71
2023-01-11T11:22:10.494Z,991.69
2023-01-11T11:23:10.479Z,991.66
2023-01-11T11:24:10.481Z,991.64
2023-01-11T11:25:10.428Z,991.66
2023-01-11T11:26:10.403Z,991.63
2023-01-11T11:27:10.449Z,991.55
2023-01-11T11:28:10.349Z,991.62
2023-01-11T11:29:10.324Z,991.64
2023-01-11T11:30:10.314Z,991.69
2023-01-11T11:31:10.289Z,991.63
2023-01-11T11:32:10.255Z,991.58
2023-01-11T11:33:10.246Z,991.59
2023-01-11T11:34:10.205Z,991.59
2023-01-11T11:35:10.178Z,991.61
2023-01-11T11:36:10.172Z,991.63
2023-01-11T11:37:10.135Z,991.59
2023-01-11T11:38:10.112Z,991.54
2023-01-11T11:39:10.094Z,991.56
2023-01-11T11:40:10.062Z,991.59
2023-01-11T11:41:10.054Z,991.49
2023-01-11T11:42:10.015Z,991.53
2023-01-11T11:43:09.994Z,991.49
2023-01-11T11:44:09.972Z,991.51
2023-01-11T11:45:09.956Z,991.56
2023-01-11T11:46:09.979Z,991.50
2023-01-11T11:47:09.921Z,991.52
2023-01-11T11:48:09.875Z,991.50
2023-01-11T11:49:09.922Z,991.53
2023-01-11T11:50:09.825Z,991.54
2023-01-11T11:51:09.800Z,991.57
2023-01-11T11:52:09.786Z,991.54
2023-01-11T11:53:09.775Z,991.54
2023-01-11T11:54:09.760Z,991.54
2023-01-11T11:55:09.716Z,991.51
2023-01-11T11:56:09.696Z,991.52
2023-01-11T11:57:09.675Z,991.44
2023-01-11T11:58:09.654Z,991.41
2023-01-11T11:59:09.622Z,991.42
2023-01-11T12:00:09.627Z,991.44
2023-01-11T12:01:09.605Z,991.40
2023-01-11T12:02:09.627Z,991.36
2023-01-11T12:03:09.525Z,991.38
2023-01-11T12:04:09.518Z,991.36
2023-01-11T12:05:09.601Z,991.38
2023-01-11T12:06:09.461Z,991.36
2023-01-11T12:07:09.436Z,991.36
2023-01-11T12:08:09.444Z,991.36
2023-01-11T12:09:09.430Z,991.40
2023-01-11T12:10:09.374Z,991.38
2023-01-11T12:11:09.344Z,991.42
2023-01-11T12:12:09.373Z,991.40
2023-01-11T12:13:09.331Z,991.44
2023-01-11T12:14:09.283Z,991.41
2023-01-11T12:15:09.258Z,991.43
2023-01-11T12:16:09.237Z,991.38
2023-01-11T12:17:09.211Z,991.34
2023-01-11T12:18:09.199Z,991.30
2023-01-11T12:19:09.162Z,991.34
2023-01-11T12:20:09.145Z,991.38
2023-01-11T12:21:09.122Z,991.45
2023-01-11T12:22:09.101Z,991.46
2023-01-11T12:23:09.077Z,991.46
2023-01-11T12:24:09.057Z,991.46
2023-01-11T12:25:09.025Z,991.49
2023-01-11T12:26:09.106Z,991.49
2023-01-11T12:27:09.044Z,991.52
2023-01-11T12:28:08.961Z,991.56
2023-01-11T12:29:08.939Z,991.52
2023-01-11T12:30:08.953Z,991.47
2023-01-11T12:31:08.918Z,991.47
2023-01-11T12:32:08.869Z,991.44
2023-01-11T12:33:08.841Z,991.50
2023-01-11T12:34:08.826Z,991.49
2023-01-11T12:35:08.829Z,991.50
2023-01-11T12:36:08.792Z,991.48
2023-01-11T12:37:08.787Z,991.49
2023-01-11T12:38:08.736Z,991.44
2023-01-11T12:39:08.706Z,991.48
2023-01-11T12:40:08.693Z,991.43
2023-01-11T12:41:08.856Z,991.36
2023-01-11T12:42:08.660Z,991.35
2023-01-11T12:43:08.624Z,991.39
2023-01-11T12:44:08.659Z,991.38
2023-01-11T12:45:08.649Z,991.35